Terminal Aerodrome Forecast
Issued by NWS

Home | Current Version | Previous Version | Text Only | Print | Product List | Glossary On
Versions: 1 2 3 4 5 6 7 8 9 10 11 12 13 14 15 16 17 18 19
510
FTUS43 KDLH 180038 AAA
TAFHIB
TAF AMD
KHIB 180038Z 1801/1824 15015G30KT 3SM -TSRA BR BKN040CB
      TEMPO 1801/1802 30015G25KT 1/2SM +TSRA FG OVC025CB
     FM180600 19005KT P6SM VCTS BKN090CB
     FM181200 34005KT P6SM BKN070
     FM181500 36006KT P6SM BKN100=

USA.gov is the U.S. government's official web portal to all federal, state and local government web resources and services.